createdAt,value
2023-03-22T00:14:29.318Z,25.70
2023-03-22T00:34:29.038Z,30.10
2023-03-22T00:54:28.775Z,25.40
2023-03-22T01:14:28.545Z,34.00
2023-03-22T01:34:28.251Z,37.10
2023-03-22T01:54:28.026Z,30.60
2023-03-22T02:14:27.731Z,40.40
2023-03-22T02:34:27.469Z,32.40
2023-03-22T02:54:27.201Z,32.40
2023-03-22T03:14:26.966Z,39.70
2023-03-22T03:34:26.706Z,30.10
2023-03-22T03:54:26.430Z,28.30
2023-03-22T04:14:26.162Z,22.20
2023-03-22T04:34:25.949Z,21.60
2023-03-22T04:54:25.624Z,25.00
2023-03-22T05:14:25.401Z,23.40
2023-03-22T05:34:25.118Z,17.40
2023-03-22T05:54:24.886Z,34.20
2023-03-22T06:14:24.582Z,16.50
2023-03-22T06:34:24.312Z,14.50
2023-03-22T06:54:24.022Z,37.00
2023-03-22T07:14:23.757Z,31.50
2023-03-22T07:34:23.468Z,24.10
2023-03-22T07:54:33.316Z,33.40
2023-03-22T08:14:35.456Z,15.10
2023-03-22T08:34:22.655Z,31.80
2023-03-22T08:54:22.419Z,25.70
2023-03-22T09:14:22.091Z,11.30
2023-03-22T09:34:21.815Z,19.40
2023-03-22T09:54:21.589Z,9.40
2023-03-22T10:14:21.277Z,18.50
2023-03-22T10:34:21.031Z,16.90
2023-03-22T10:54:20.725Z,7.10
2023-03-22T11:14:20.522Z,3.90
2023-03-22T11:34:20.291Z,8.30
2023-03-22T11:54:19.934Z,6.30
2023-03-22T12:14:19.674Z,13.70
2023-03-22T12:34:19.387Z,9.50
2023-03-22T12:54:19.136Z,4.80
2023-03-22T13:14:18.833Z,3.80
2023-03-22T13:34:18.545Z,8.20
2023-03-22T13:54:18.279Z,7.40
2023-03-22T14:14:18.066Z,5.70
